Westchester, IL (60154)

10:09 AM CDT en Octubre 21, 2014 (GMT -0500)
Mr. Hammes's Weather | Change Station
CLOSE
Current Station
Estación meteorológica personal
Location: Westchester, IL
Altura: 641 ft
Estaciones meteorológicas cercanas

Alt 641 ft 41.85 °N, 87.87 °W | Updated 19 seconds ago

Parcialmente nublado
Parcialmente nublado
49.8 ° F
Sensación térmica 50 ° F
N
2.3
Viento Variable Viento desde Norte
Gusts 0.0 mph

Hoy
Alta -- | Baja -- ° F
--% Posibilidad de precipitaciones
Ayer
Alta -- | Baja -- ° F
Precip. -- pul
7:10 AM 6:00 PM
Creciente menguante, 5% visible
Presión 30.15 pul
Visibilidad 10.0 Millas
Nubes Baja 2300 ft
Nubes dispersas 3500 ft
Muy nublado 4400 ft
Vientos helados 50 ° F
Punto de rocío 38 ° F
Humedad 63%
Precipitaciones 0.00 pul
Espesor de la nieve No disponible.
UV 1 de una escala de 12
Polen 1.60 de una escala de 12
Ozono Buena
PM2.5 Buena
Flu Activity No Activity
METAR KMDW 211453Z 36012KT 10SM FEW023 SCT035 BKN044 11/05 A3015 RMK AO2 SLP210 T01060050 51019

More Conditions Fewer Conditions

Presión 30.15 pul
Visibilidad 10.0 Millas
Nubes Baja 2300 ft
Nubes dispersas 3500 ft
Muy nublado 4400 ft
Vientos helados 50 ° F
Punto de rocío 38 ° F
Humedad 63%
Precipitaciones 0.00 pul
Espesor de la nieve No disponible.
UV 1 de una escala de 12
Polen 1.60 de una escala de 12
Ozono Buena
PM2.5 Buena
Flu Activity No Activity
METAR KMDW 211453Z 36012KT 10SM FEW023 SCT035 BKN044 11/05 A3015 RMK AO2 SLP210 T01060050 51019

More Conditions Fewer Conditions

10-Day Weather Forecast

Almanac

Astronomía

Oct. 21, 2014 Salida Puesta
Hora real 7:10 AM CDT 6:00 PM CDT
Crepúsculo civil 6:42 AM CDT 6:29 PM CDT
Crepúsculo náutico 6:09 AM CDT 7:01 PM CDT
Crepúsculo astronómico 5:37 AM CDT 7:33 PM CDT
Luna 4:52 AM CDT 4:56 PM CDT
Horas de luz 11h 46m
Horas de luz
10h 50m
Tomorrow will be 2m 38s shorter.
Creciente menguante, 5% of the Moon is Illuminated
Hoy
Creciente menguante
Oct 23
Nueva
Oct 30
Cuarto creciente
Nov 6
Luna llena
Nov 14
Cuarto menguante

Extremos de hoy

Máximos del estado Bajos del estado

Community

WunderPhotos

Upload Photos

1,763,682 ¡fotos cargadas!

WunderBlogs® & News

By Dr. Jeff Masters
Director of Meteorology, Weather Underground
By Kari Strenfel
Meteorologist, Weather Underground
By Christopher C. Burt
Weather Historian, Weather Underground
October 21, 2014
October 21, 2014
October 21, 2014

Nearby

Calidad del aire

  Calidad del aire Índice AQ Contaminante
Ayer Buena
PM2.5
Ayer Buena
OZONE
Real Buena
PM2.5
Real Buena
OZONE
Martes Buena
PM2.5
Miércoles Buena
PM2.5

Grosos de nieve

Estación Profundido Altura
No tenemos constancia de nieve nueva.

Actividad de terremotos

Ciudad Distance Mag. Tiempo y dato
No hay informes recientes de la actividad sísmica.
Magnitud mínima muestra es 2,5.

Temperaturas de aguas costeras

Lugar Temperatura
Sin partes meteorológicos de las estaciones

Estaciones meteorológicas cercanas